sensor_id;sensor_type;location;lat;lon;timestamp;temperature;humidity
33023;DHT22;19390;51.460;5.710;2024-01-30T00:01:13;7.80;99.90
33023;DHT22;19390;51.460;5.710;2024-01-30T00:03:39;7.80;99.90
33023;DHT22;19390;51.460;5.710;2024-01-30T00:06:04;7.80;99.90
33023;DHT22;19390;51.460;5.710;2024-01-30T00:08:30;7.80;99.90
33023;DHT22;19390;51.460;5.710;2024-01-30T00:10:56;7.80;99.90
33023;DHT22;19390;51.460;5.710;2024-01-30T00:13:21;7.70;99.90
33023;DHT22;19390;51.460;5.710;2024-01-30T00:15:48;7.70;99.90
33023;DHT22;19390;51.460;5.710;2024-01-30T00:18:14;7.70;99.90
33023;DHT22;19390;51.460;5.710;2024-01-30T00:20:39;7.70;99.90
33023;DHT22;19390;51.460;5.710;2024-01-30T00:23:05;7.70;99.90
33023;DHT22;19390;51.460;5.710;2024-01-30T00:25:30;7.70;99.90
33023;DHT22;19390;51.460;5.710;2024-01-30T00:27:56;7.70;99.90
33023;DHT22;19390;51.460;5.710;2024-01-30T00:30:22;7.60;99.90
33023;DHT22;19390;51.460;5.710;2024-01-30T00:32:47;7.60;99.90
33023;DHT22;19390;51.460;5.710;2024-01-30T00:35:13;7.50;99.90
33023;DHT22;19390;51.460;5.710;2024-01-30T00:37:38;7.50;99.90
33023;DHT22;19390;51.460;5.710;2024-01-30T00:40:04;7.50;99.90
33023;DHT22;19390;51.460;5.710;2024-01-30T00:42:31;7.50;99.90
33023;DHT22;19390;51.460;5.710;2024-01-30T00:44:57;7.50;99.90
33023;DHT22;19390;51.460;5.710;2024-01-30T00:47:23;7.50;99.90
33023;DHT22;19390;51.460;5.710;2024-01-30T00:49:49;7.50;99.90
33023;DHT22;19390;51.460;5.710;2024-01-30T00:52:15;7.50;99.90
33023;DHT22;19390;51.460;5.710;2024-01-30T00:54:41;7.50;99.90
33023;DHT22;19390;51.460;5.710;2024-01-30T00:57:07;7.40;99.90
33023;DHT22;19390;51.460;5.710;2024-01-30T00:59:32;7.40;99.90
33023;DHT22;19390;51.460;5.710;2024-01-30T01:01:58;7.40;99.90
33023;DHT22;19390;51.460;5.710;2024-01-30T01:04:24;7.30;99.90
33023;DHT22;19390;51.460;5.710;2024-01-30T01:06:52;7.30;99.90
33023;DHT22;19390;51.460;5.710;2024-01-30T01:09:17;7.20;99.90
33023;DHT22;19390;51.460;5.710;2024-01-30T01:11:43;7.30;99.90
33023;DHT22;19390;51.460;5.710;2024-01-30T01:14:08;7.20;99.90
33023;DHT22;19390;51.460;5.710;2024-01-30T01:16:34;7.20;99.90
33023;DHT22;19390;51.460;5.710;2024-01-30T01:18:59;7.20;99.90
33023;DHT22;19390;51.460;5.710;2024-01-30T01:21:25;7.20;99.90
33023;DHT22;19390;51.460;5.710;2024-01-30T01:23:51;7.10;99.90
33023;DHT22;19390;51.460;5.710;2024-01-30T01:26:17;7.20;99.90
33023;DHT22;19390;51.460;5.710;2024-01-30T01:28:42;7.10;99.90
33023;DHT22;19390;51.460;5.710;2024-01-30T01:31:08;7.10;99.90
33023;DHT22;19390;51.460;5.710;2024-01-30T01:33:34;7.10;99.90
33023;DHT22;19390;51.460;5.710;2024-01-30T01:36:01;7.10;99.90
33023;DHT22;19390;51.460;5.710;2024-01-30T01:38:29;7.10;99.90
33023;DHT22;19390;51.460;5.710;2024-01-30T01:40:55;7.10;99.90
33023;DHT22;19390;51.460;5.710;2024-01-30T01:43:21;7.10;99.90
33023;DHT22;19390;51.460;5.710;2024-01-30T01:45:46;7.10;99.90
33023;DHT22;19390;51.460;5.710;2024-01-30T01:48:12;7.10;99.90
33023;DHT22;19390;51.460;5.710;2024-01-30T01:50:38;7.10;99.90
33023;DHT22;19390;51.460;5.710;2024-01-30T01:53:07;7.10;99.90
33023;DHT22;19390;51.460;5.710;2024-01-30T01:55:35;7.20;99.90
33023;DHT22;19390;51.460;5.710;2024-01-30T01:58:01;7.10;99.90
33023;DHT22;19390;51.460;5.710;2024-01-30T02:00:27;7.20;99.90
33023;DHT22;19390;51.460;5.710;2024-01-30T02:02:54;7.10;99.90
33023;DHT22;19390;51.460;5.710;2024-01-30T02:05:21;7.10;99.90
33023;DHT22;19390;51.460;5.710;2024-01-30T02:07:47;7.10;99.90
33023;DHT22;19390;51.460;5.710;2024-01-30T02:10:13;7.10;99.90
33023;DHT22;19390;51.460;5.710;2024-01-30T02:12:38;7.20;99.90
33023;DHT22;19390;51.460;5.710;2024-01-30T02:15:05;7.20;99.90
33023;DHT22;19390;51.460;5.710;2024-01-30T02:17:31;7.30;99.90
33023;DHT22;19390;51.460;5.710;2024-01-30T02:19:56;7.30;99.90
33023;DHT22;19390;51.460;5.710;2024-01-30T02:22:22;7.30;99.90
33023;DHT22;19390;51.460;5.710;2024-01-30T02:24:49;7.30;99.90
33023;DHT22;19390;51.460;5.710;2024-01-30T02:27:14;7.30;99.90
33023;DHT22;19390;51.460;5.710;2024-01-30T02:29:40;7.30;99.90
33023;DHT22;19390;51.460;5.710;2024-01-30T02:32:06;7.30;99.90
33023;DHT22;19390;51.460;5.710;2024-01-30T02:34:33;7.20;99.90
33023;DHT22;19390;51.460;5.710;2024-01-30T02:36:58;7.20;99.90
33023;DHT22;19390;51.460;5.710;2024-01-30T02:39:24;7.10;99.90
33023;DHT22;19390;51.460;5.710;2024-01-30T02:41:50;7.10;99.90
33023;DHT22;19390;51.460;5.710;2024-01-30T02:44:15;7.00;99.90
33023;DHT22;19390;51.460;5.710;2024-01-30T02:46:41;7.00;99.90
33023;DHT22;19390;51.460;5.710;2024-01-30T02:49:06;7.00;99.90
33023;DHT22;19390;51.460;5.710;2024-01-30T02:51:32;7.00;99.90
33023;DHT22;19390;51.460;5.710;2024-01-30T02:53:57;7.00;99.90
33023;DHT22;19390;51.460;5.710;2024-01-30T02:56:23;7.00;99.90
33023;DHT22;19390;51.460;5.710;2024-01-30T02:58:49;7.00;99.90
33023;DHT22;19390;51.460;5.710;2024-01-30T03:01:14;7.00;99.90
33023;DHT22;19390;51.460;5.710;2024-01-30T03:03:40;7.00;99.90
33023;DHT22;19390;51.460;5.710;2024-01-30T03:06:06;7.10;99.90
33023;DHT22;19390;51.460;5.710;2024-01-30T03:08:32;7.00;99.90
33023;DHT22;19390;51.460;5.710;2024-01-30T03:10:58;7.00;99.90
33023;DHT22;19390;51.460;5.710;2024-01-30T03:13:23;7.00;99.90
33023;DHT22;19390;51.460;5.710;2024-01-30T03:15:50;7.00;99.90
33023;DHT22;19390;51.460;5.710;2024-01-30T03:18:16;7.00;99.90
33023;DHT22;19390;51.460;5.710;2024-01-30T03:20:41;7.00;99.90
33023;DHT22;19390;51.460;5.710;2024-01-30T03:23:07;7.10;99.90
33023;DHT22;19390;51.460;5.710;2024-01-30T03:25:32;7.10;99.90
33023;DHT22;19390;51.460;5.710;2024-01-30T03:27:58;7.10;99.90
33023;DHT22;19390;51.460;5.710;2024-01-30T03:30:24;7.20;99.90
33023;DHT22;19390;51.460;5.710;2024-01-30T03:32:49;7.30;99.90
33023;DHT22;19390;51.460;5.710;2024-01-30T03:35:15;7.30;99.90
33023;DHT22;19390;51.460;5.710;2024-01-30T03:37:41;7.30;99.90
33023;DHT22;19390;51.460;5.710;2024-01-30T03:40:07;7.30;99.90
33023;DHT22;19390;51.460;5.710;2024-01-30T03:42:33;7.40;99.90
33023;DHT22;19390;51.460;5.710;2024-01-30T03:44:58;7.30;99.90
33023;DHT22;19390;51.460;5.710;2024-01-30T03:47:24;7.40;99.90
33023;DHT22;19390;51.460;5.710;2024-01-30T03:49:49;7.40;99.90
33023;DHT22;19390;51.460;5.710;2024-01-30T03:52:15;7.40;99.90
33023;DHT22;19390;51.460;5.710;2024-01-30T03:54:40;7.40;99.90
33023;DHT22;19390;51.460;5.710;2024-01-30T03:57:06;7.30;99.90
33023;DHT22;19390;51.460;5.710;2024-01-30T03:59:32;7.30;99.90
33023;DHT22;19390;51.460;5.710;2024-01-30T04:01:57;7.30;99.90
33023;DHT22;19390;51.460;5.710;2024-01-30T04:04:23;7.30;99.90
33023;DHT22;19390;51.460;5.710;2024-01-30T04:06:49;7.40;99.90
33023;DHT22;19390;51.460;5.710;2024-01-30T04:09:14;7.40;99.90
33023;DHT22;19390;51.460;5.710;2024-01-30T04:11:40;7.40;99.90
33023;DHT22;19390;51.460;5.710;2024-01-30T04:14:07;7.40;99.90
33023;DHT22;19390;51.460;5.710;2024-01-30T04:16:33;7.50;99.90
33023;DHT22;19390;51.460;5.710;2024-01-30T04:18:58;7.50;99.90
33023;DHT22;19390;51.460;5.710;2024-01-30T04:21:24;7.50;99.90
33023;DHT22;19390;51.460;5.710;2024-01-30T04:23:51;7.60;99.90
33023;DHT22;19390;51.460;5.710;2024-01-30T04:26:16;7.60;99.90
33023;DHT22;19390;51.460;5.710;2024-01-30T04:28:43;7.60;99.90
33023;DHT22;19390;51.460;5.710;2024-01-30T04:31:09;7.50;99.90
33023;DHT22;19390;51.460;5.710;2024-01-30T04:33:35;7.50;99.90
33023;DHT22;19390;51.460;5.710;2024-01-30T04:36:00;7.50;99.90
33023;DHT22;19390;51.460;5.710;2024-01-30T04:38:26;7.50;99.90
33023;DHT22;19390;51.460;5.710;2024-01-30T04:40:52;7.50;99.90
33023;DHT22;19390;51.460;5.710;2024-01-30T04:43:17;7.50;99.90
33023;DHT22;19390;51.460;5.710;2024-01-30T04:45:44;7.40;99.90
33023;DHT22;19390;51.460;5.710;2024-01-30T04:48:10;7.40;99.90
33023;DHT22;19390;51.460;5.710;2024-01-30T04:50:35;7.30;99.90
33023;DHT22;19390;51.460;5.710;2024-01-30T04:53:01;7.40;99.90
33023;DHT22;19390;51.460;5.710;2024-01-30T04:55:27;7.40;99.90
33023;DHT22;19390;51.460;5.710;2024-01-30T04:57:52;7.40;99.90
33023;DHT22;19390;51.460;5.710;2024-01-30T05:00:18;7.40;99.90
33023;DHT22;19390;51.460;5.710;2024-01-30T05:02:44;7.50;99.90
33023;DHT22;19390;51.460;5.710;2024-01-30T05:05:09;7.50;99.90
33023;DHT22;19390;51.460;5.710;2024-01-30T05:07:36;7.50;99.90
33023;DHT22;19390;51.460;5.710;2024-01-30T05:10:02;7.60;99.90
33023;DHT22;19390;51.460;5.710;2024-01-30T05:12:28;7.70;99.90
33023;DHT22;19390;51.460;5.710;2024-01-30T05:14:54;7.80;99.90
33023;DHT22;19390;51.460;5.710;2024-01-30T05:17:20;7.80;99.90
33023;DHT22;19390;51.460;5.710;2024-01-30T05:19:45;7.80;99.90
33023;DHT22;19390;51.460;5.710;2024-01-30T05:22:11;7.80;99.90
33023;DHT22;19390;51.460;5.710;2024-01-30T05:24:41;7.90;99.90
33023;DHT22;19390;51.460;5.710;2024-01-30T05:27:07;7.90;99.90
33023;DHT22;19390;51.460;5.710;2024-01-30T05:29:32;8.00;99.90
33023;DHT22;19390;51.460;5.710;2024-01-30T05:31:58;8.00;99.90
33023;DHT22;19390;51.460;5.710;2024-01-30T05:34:24;8.10;99.90
33023;DHT22;19390;51.460;5.710;2024-01-30T05:36:50;8.10;99.90
33023;DHT22;19390;51.460;5.710;2024-01-30T05:39:15;8.20;99.90
33023;DHT22;19390;51.460;5.710;2024-01-30T05:41:41;8.30;99.90
33023;DHT22;19390;51.460;5.710;2024-01-30T05:44:07;8.30;99.90
33023;DHT22;19390;51.460;5.710;2024-01-30T05:46:33;8.30;99.90
33023;DHT22;19390;51.460;5.710;2024-01-30T05:48:59;8.30;99.90
33023;DHT22;19390;51.460;5.710;2024-01-30T05:51:24;8.30;99.90
33023;DHT22;19390;51.460;5.710;2024-01-30T05:53:50;8.20;99.90
33023;DHT22;19390;51.460;5.710;2024-01-30T05:56:16;8.20;99.90
33023;DHT22;19390;51.460;5.710;2024-01-30T05:58:41;8.20;99.90
33023;DHT22;19390;51.460;5.710;2024-01-30T06:01:08;8.20;99.90
33023;DHT22;19390;51.460;5.710;2024-01-30T06:03:34;8.20;99.90
33023;DHT22;19390;51.460;5.710;2024-01-30T06:06:00;8.10;99.90
33023;DHT22;19390;51.460;5.710;2024-01-30T06:08:26;8.00;99.90
33023;DHT22;19390;51.460;5.710;2024-01-30T06:10:51;8.00;99.90
33023;DHT22;19390;51.460;5.710;2024-01-30T06:13:17;8.00;99.90
33023;DHT22;19390;51.460;5.710;2024-01-30T06:15:43;7.90;99.90
33023;DHT22;19390;51.460;5.710;2024-01-30T06:18:08;7.90;99.90
33023;DHT22;19390;51.460;5.710;2024-01-30T06:20:34;7.90;99.90
33023;DHT22;19390;51.460;5.710;2024-01-30T06:23:00;8.00;99.90
33023;DHT22;19390;51.460;5.710;2024-01-30T06:25:26;8.00;99.90
33023;DHT22;19390;51.460;5.710;2024-01-30T06:27:51;8.00;99.90
33023;DHT22;19390;51.460;5.710;2024-01-30T06:30:18;8.00;99.90
33023;DHT22;19390;51.460;5.710;2024-01-30T06:32:43;8.10;99.90
33023;DHT22;19390;51.460;5.710;2024-01-30T06:35:09;8.10;99.90
33023;DHT22;19390;51.460;5.710;2024-01-30T06:37:36;8.10;99.90
33023;DHT22;19390;51.460;5.710;2024-01-30T06:40:01;8.10;99.90
33023;DHT22;19390;51.460;5.710;2024-01-30T06:42:27;8.00;99.90
33023;DHT22;19390;51.460;5.710;2024-01-30T06:44:53;8.00;99.90
33023;DHT22;19390;51.460;5.710;2024-01-30T06:47:18;8.10;99.90
33023;DHT22;19390;51.460;5.710;2024-01-30T06:49:44;8.10;99.90
33023;DHT22;19390;51.460;5.710;2024-01-30T06:52:10;8.10;99.90
33023;DHT22;19390;51.460;5.710;2024-01-30T06:54:36;8.10;99.90
33023;DHT22;19390;51.460;5.710;2024-01-30T06:57:02;8.10;99.90
33023;DHT22;19390;51.460;5.710;2024-01-30T06:59:28;8.10;99.90
33023;DHT22;19390;51.460;5.710;2024-01-30T07:01:54;8.10;99.90
33023;DHT22;19390;51.460;5.710;2024-01-30T07:04:19;8.00;99.90
33023;DHT22;19390;51.460;5.710;2024-01-30T07:06:45;8.00;99.90
33023;DHT22;19390;51.460;5.710;2024-01-30T07:09:11;8.10;99.90
33023;DHT22;19390;51.460;5.710;2024-01-30T07:11:37;8.10;99.90
33023;DHT22;19390;51.460;5.710;2024-01-30T07:14:03;8.20;99.90
33023;DHT22;19390;51.460;5.710;2024-01-30T07:16:31;8.20;99.90
33023;DHT22;19390;51.460;5.710;2024-01-30T07:18:57;8.30;99.90
33023;DHT22;19390;51.460;5.710;2024-01-30T07:21:22;8.30;99.90
33023;DHT22;19390;51.460;5.710;2024-01-30T07:23:56;8.40;99.90
33023;DHT22;19390;51.460;5.710;2024-01-30T07:26:22;8.50;99.90
33023;DHT22;19390;51.460;5.710;2024-01-30T07:28:47;8.60;99.90
33023;DHT22;19390;51.460;5.710;2024-01-30T07:31:13;8.70;99.90
33023;DHT22;19390;51.460;5.710;2024-01-30T07:33:39;8.70;99.90
33023;DHT22;19390;51.460;5.710;2024-01-30T07:36:05;8.90;99.90
33023;DHT22;19390;51.460;5.710;2024-01-30T07:38:33;9.00;99.90
33023;DHT22;19390;51.460;5.710;2024-01-30T07:40:59;9.10;99.90
33023;DHT22;19390;51.460;5.710;2024-01-30T07:43:24;9.20;99.90
33023;DHT22;19390;51.460;5.710;2024-01-30T07:45:50;9.30;99.90
33023;DHT22;19390;51.460;5.710;2024-01-30T07:48:15;9.30;99.90
33023;DHT22;19390;51.460;5.710;2024-01-30T07:50:41;9.30;99.90
33023;DHT22;19390;51.460;5.710;2024-01-30T07:53:07;9.30;99.90
33023;DHT22;19390;51.460;5.710;2024-01-30T07:55:33;9.30;99.90
33023;DHT22;19390;51.460;5.710;2024-01-30T07:57:58;9.30;99.90
33023;DHT22;19390;51.460;5.710;2024-01-30T08:00:24;9.60;99.90
33023;DHT22;19390;51.460;5.710;2024-01-30T08:02:53;9.50;99.90
33023;DHT22;19390;51.460;5.710;2024-01-30T08:05:22;9.60;99.90
33023;DHT22;19390;51.460;5.710;2024-01-30T08:07:48;9.70;99.90
33023;DHT22;19390;51.460;5.710;2024-01-30T08:10:15;9.70;99.90
33023;DHT22;19390;51.460;5.710;2024-01-30T08:12:41;9.80;99.90
33023;DHT22;19390;51.460;5.710;2024-01-30T08:15:07;9.80;99.90
33023;DHT22;19390;51.460;5.710;2024-01-30T08:17:33;9.80;99.90
33023;DHT22;19390;51.460;5.710;2024-01-30T08:19:59;9.70;99.90
33023;DHT22;19390;51.460;5.710;2024-01-30T08:22:25;9.70;99.90
33023;DHT22;19390;51.460;5.710;2024-01-30T08:24:50;9.70;99.90
33023;DHT22;19390;51.460;5.710;2024-01-30T08:27:16;9.70;99.90
33023;DHT22;19390;51.460;5.710;2024-01-30T08:29:41;9.70;99.90
33023;DHT22;19390;51.460;5.710;2024-01-30T08:32:07;9.70;99.90
33023;DHT22;19390;51.460;5.710;2024-01-30T08:34:33;9.70;99.90
33023;DHT22;19390;51.460;5.710;2024-01-30T08:36:59;9.70;99.90
33023;DHT22;19390;51.460;5.710;2024-01-30T08:39:25;9.80;99.90
33023;DHT22;19390;51.460;5.710;2024-01-30T08:41:50;9.80;99.90
33023;DHT22;19390;51.460;5.710;2024-01-30T08:44:16;9.70;99.90
33023;DHT22;19390;51.460;5.710;2024-01-30T08:46:43;9.80;99.90
33023;DHT22;19390;51.460;5.710;2024-01-30T08:49:08;9.70;99.90
33023;DHT22;19390;51.460;5.710;2024-01-30T08:51:34;9.90;99.90
33023;DHT22;19390;51.460;5.710;2024-01-30T08:54:00;9.90;99.90
33023;DHT22;19390;51.460;5.710;2024-01-30T08:56:25;9.90;99.90
33023;DHT22;19390;51.460;5.710;2024-01-30T08:58:51;9.80;99.90
33023;DHT22;19390;51.460;5.710;2024-01-30T09:01:16;10.00;99.90
33023;DHT22;19390;51.460;5.710;2024-01-30T09:03:42;9.90;99.90
33023;DHT22;19390;51.460;5.710;2024-01-30T09:06:11;9.90;99.90
33023;DHT22;19390;51.460;5.710;2024-01-30T09:08:37;10.00;99.90
33023;DHT22;19390;51.460;5.710;2024-01-30T09:11:10;10.00;99.90
33023;DHT22;19390;51.460;5.710;2024-01-30T09:13:36;10.00;99.90
33023;DHT22;19390;51.460;5.710;2024-01-30T09:16:01;10.00;99.90
33023;DHT22;19390;51.460;5.710;2024-01-30T09:18:27;10.10;99.90
33023;DHT22;19390;51.460;5.710;2024-01-30T09:20:53;10.20;99.90
33023;DHT22;19390;51.460;5.710;2024-01-30T09:23:18;10.20;99.90
33023;DHT22;19390;51.460;5.710;2024-01-30T09:25:45;10.20;99.90
33023;DHT22;19390;51.460;5.710;2024-01-30T09:28:10;10.20;99.90
33023;DHT22;19390;51.460;5.710;2024-01-30T09:30:36;10.30;99.90
33023;DHT22;19390;51.460;5.710;2024-01-30T09:33:01;10.30;99.90
33023;DHT22;19390;51.460;5.710;2024-01-30T09:35:27;10.30;99.90
33023;DHT22;19390;51.460;5.710;2024-01-30T09:37:53;10.30;99.90
33023;DHT22;19390;51.460;5.710;2024-01-30T09:40:18;10.30;99.90
33023;DHT22;19390;51.460;5.710;2024-01-30T09:42:50;10.40;99.90
33023;DHT22;19390;51.460;5.710;2024-01-30T09:45:17;10.40;99.90
33023;DHT22;19390;51.460;5.710;2024-01-30T09:47:44;10.40;99.90
33023;DHT22;19390;51.460;5.710;2024-01-30T09:50:14;10.40;99.90
33023;DHT22;19390;51.460;5.710;2024-01-30T09:52:40;10.40;99.90
33023;DHT22;19390;51.460;5.710;2024-01-30T09:55:07;10.40;99.90
33023;DHT22;19390;51.460;5.710;2024-01-30T09:57:34;10.40;99.90
33023;DHT22;19390;51.460;5.710;2024-01-30T10:00:00;10.40;99.90
33023;DHT22;19390;51.460;5.710;2024-01-30T10:02:25;10.50;99.90
33023;DHT22;19390;51.460;5.710;2024-01-30T10:04:51;10.50;99.90
33023;DHT22;19390;51.460;5.710;2024-01-30T10:07:18;10.40;99.90
33023;DHT22;19390;51.460;5.710;2024-01-30T10:09:44;10.50;99.90
33023;DHT22;19390;51.460;5.710;2024-01-30T10:12:10;10.50;99.90
33023;DHT22;19390;51.460;5.710;2024-01-30T10:14:39;10.50;99.90
33023;DHT22;19390;51.460;5.710;2024-01-30T10:17:05;10.60;99.90
33023;DHT22;19390;51.460;5.710;2024-01-30T10:19:31;10.60;99.90
33023;DHT22;19390;51.460;5.710;2024-01-30T10:21:57;10.70;99.90
33023;DHT22;19390;51.460;5.710;2024-01-30T10:24:26;10.90;99.90
33023;DHT22;19390;51.460;5.710;2024-01-30T10:26:53;10.90;99.90
33023;DHT22;19390;51.460;5.710;2024-01-30T10:29:18;11.00;99.90
33023;DHT22;19390;51.460;5.710;2024-01-30T10:31:44;11.10;99.90
33023;DHT22;19390;51.460;5.710;2024-01-30T10:34:10;11.10;99.90
33023;DHT22;19390;51.460;5.710;2024-01-30T10:36:40;11.20;99.90
33023;DHT22;19390;51.460;5.710;2024-01-30T10:39:08;11.10;99.90
33023;DHT22;19390;51.460;5.710;2024-01-30T10:41:43;11.20;99.90
33023;DHT22;19390;51.460;5.710;2024-01-30T10:44:10;11.20;99.90
33023;DHT22;19390;51.460;5.710;2024-01-30T10:46:38;11.20;99.90
33023;DHT22;19390;51.460;5.710;2024-01-30T10:49:05;11.20;99.90
33023;DHT22;19390;51.460;5.710;2024-01-30T10:51:32;11.20;99.90
33023;DHT22;19390;51.460;5.710;2024-01-30T10:53:58;11.20;99.90
33023;DHT22;19390;51.460;5.710;2024-01-30T10:56:24;11.20;99.90
33023;DHT22;19390;51.460;5.710;2024-01-30T10:58:51;11.20;99.90
33023;DHT22;19390;51.460;5.710;2024-01-30T11:01:22;11.30;99.90
33023;DHT22;19390;51.460;5.710;2024-01-30T11:03:51;11.40;99.90
33023;DHT22;19390;51.460;5.710;2024-01-30T11:06:17;11.40;99.90
33023;DHT22;19390;51.460;5.710;2024-01-30T11:08:46;11.30;99.90
33023;DHT22;19390;51.460;5.710;2024-01-30T11:11:12;11.40;99.90
33023;DHT22;19390;51.460;5.710;2024-01-30T11:13:37;11.30;99.90
33023;DHT22;19390;51.460;5.710;2024-01-30T11:16:06;11.40;99.90
33023;DHT22;19390;51.460;5.710;2024-01-30T11:18:33;11.30;99.90
33023;DHT22;19390;51.460;5.710;2024-01-30T11:21:00;11.40;99.90
33023;DHT22;19390;51.460;5.710;2024-01-30T11:23:26;11.50;99.90
33023;DHT22;19390;51.460;5.710;2024-01-30T11:25:56;11.70;99.90
33023;DHT22;19390;51.460;5.710;2024-01-30T11:28:22;11.70;99.90
33023;DHT22;19390;51.460;5.710;2024-01-30T11:30:48;11.80;99.90
33023;DHT22;19390;51.460;5.710;2024-01-30T11:33:26;11.90;99.90
33023;DHT22;19390;51.460;5.710;2024-01-30T11:35:52;11.60;99.90
33023;DHT22;19390;51.460;5.710;2024-01-30T11:38:18;11.60;99.90
33023;DHT22;19390;51.460;5.710;2024-01-30T11:40:44;11.60;99.90
33023;DHT22;19390;51.460;5.710;2024-01-30T11:43:10;11.60;99.90
33023;DHT22;19390;51.460;5.710;2024-01-30T11:45:37;11.50;99.90
33023;DHT22;19390;51.460;5.710;2024-01-30T11:48:03;11.60;99.90
33023;DHT22;19390;51.460;5.710;2024-01-30T11:50:33;11.70;99.90
33023;DHT22;19390;51.460;5.710;2024-01-30T11:52:59;11.70;99.90
33023;DHT22;19390;51.460;5.710;2024-01-30T11:55:25;11.70;99.90
33023;DHT22;19390;51.460;5.710;2024-01-30T11:57:55;11.70;99.90
33023;DHT22;19390;51.460;5.710;2024-01-30T12:00:21;11.80;99.90
33023;DHT22;19390;51.460;5.710;2024-01-30T12:02:51;12.10;99.90
33023;DHT22;19390;51.460;5.710;2024-01-30T12:05:19;12.20;99.90
33023;DHT22;19390;51.460;5.710;2024-01-30T12:07:45;12.20;99.90
33023;DHT22;19390;51.460;5.710;2024-01-30T12:10:14;12.20;99.90
33023;DHT22;19390;51.460;5.710;2024-01-30T12:12:41;12.10;99.90
33023;DHT22;19390;51.460;5.710;2024-01-30T12:15:08;12.00;99.90
33023;DHT22;19390;51.460;5.710;2024-01-30T12:17:34;12.00;99.90
33023;DHT22;19390;51.460;5.710;2024-01-30T12:20:10;11.90;99.90
33023;DHT22;19390;51.460;5.710;2024-01-30T12:22:36;12.00;99.90
33023;DHT22;19390;51.460;5.710;2024-01-30T12:25:05;12.00;99.90
33023;DHT22;19390;51.460;5.710;2024-01-30T12:27:30;12.00;99.90
33023;DHT22;19390;51.460;5.710;2024-01-30T12:29:57;12.20;99.90
33023;DHT22;19390;51.460;5.710;2024-01-30T12:32:23;12.20;99.90
33023;DHT22;19390;51.460;5.710;2024-01-30T12:34:49;12.20;99.90
33023;DHT22;19390;51.460;5.710;2024-01-30T12:37:15;12.00;99.90
33023;DHT22;19390;51.460;5.710;2024-01-30T12:39:45;12.00;99.90
33023;DHT22;19390;51.460;5.710;2024-01-30T12:42:11;12.20;99.90
33023;DHT22;19390;51.460;5.710;2024-01-30T12:44:36;12.30;99.90
33023;DHT22;19390;51.460;5.710;2024-01-30T12:47:05;12.40;99.90
33023;DHT22;19390;51.460;5.710;2024-01-30T12:49:31;12.50;99.90
33023;DHT22;19390;51.460;5.710;2024-01-30T12:51:57;12.50;99.90
33023;DHT22;19390;51.460;5.710;2024-01-30T12:54:23;12.40;99.90
33023;DHT22;19390;51.460;5.710;2024-01-30T12:56:49;12.10;99.90
33023;DHT22;19390;51.460;5.710;2024-01-30T12:59:15;11.80;99.90
33023;DHT22;19390;51.460;5.710;2024-01-30T13:01:41;11.80;99.90
33023;DHT22;19390;51.460;5.710;2024-01-30T13:04:07;11.70;99.90
33023;DHT22;19390;51.460;5.710;2024-01-30T13:06:32;12.10;99.90
33023;DHT22;19390;51.460;5.710;2024-01-30T13:08:58;12.70;99.90
33023;DHT22;19390;51.460;5.710;2024-01-30T13:11:23;13.10;99.90
33023;DHT22;19390;51.460;5.710;2024-01-30T13:13:51;12.70;99.90
33023;DHT22;19390;51.460;5.710;2024-01-30T13:16:16;12.40;99.90
33023;DHT22;19390;51.460;5.710;2024-01-30T13:18:43;13.00;99.90
33023;DHT22;19390;51.460;5.710;2024-01-30T13:21:09;13.70;1.00
33023;DHT22;19390;51.460;5.710;2024-01-30T13:23:35;14.10;1.00
33023;DHT22;19390;51.460;5.710;2024-01-30T13:26:01;13.50;1.00
33023;DHT22;19390;51.460;5.710;2024-01-30T13:28:26;12.80;1.00
33023;DHT22;19390;51.460;5.710;2024-01-30T13:30:52;12.30;1.00
33023;DHT22;19390;51.460;5.710;2024-01-30T13:33:18;12.00;99.90
33023;DHT22;19390;51.460;5.710;2024-01-30T13:35:43;11.80;99.90
33023;DHT22;19390;51.460;5.710;2024-01-30T13:38:09;11.70;99.90
33023;DHT22;19390;51.460;5.710;2024-01-30T13:40:35;11.70;99.90
33023;DHT22;19390;51.460;5.710;2024-01-30T13:43:01;11.70;99.90
33023;DHT22;19390;51.460;5.710;2024-01-30T13:45:27;11.60;99.90
33023;DHT22;19390;51.460;5.710;2024-01-30T13:47:52;11.80;99.90
33023;DHT22;19390;51.460;5.710;2024-01-30T13:50:18;12.10;99.10
33023;DHT22;19390;51.460;5.710;2024-01-30T13:52:44;12.10;1.00
33023;DHT22;19390;51.460;5.710;2024-01-30T13:55:10;11.90;23.90
33023;DHT22;19390;51.460;5.710;2024-01-30T13:57:36;11.60;1.00
33023;DHT22;19390;51.460;5.710;2024-01-30T14:00:05;12.00;1.00
33023;DHT22;19390;51.460;5.710;2024-01-30T14:02:32;12.10;1.00
33023;DHT22;19390;51.460;5.710;2024-01-30T14:04:57;12.00;9.40
33023;DHT22;19390;51.460;5.710;2024-01-30T14:07:23;11.50;1.00
33023;DHT22;19390;51.460;5.710;2024-01-30T14:09:49;11.20;99.90
33023;DHT22;19390;51.460;5.710;2024-01-30T14:12:14;11.90;99.90
33023;DHT22;19390;51.460;5.710;2024-01-30T14:14:41;11.80;1.00
33023;DHT22;19390;51.460;5.710;2024-01-30T14:17:07;11.50;1.00
33023;DHT22;19390;51.460;5.710;2024-01-30T14:19:35;11.30;1.00
33023;DHT22;19390;51.460;5.710;2024-01-30T14:22:01;11.20;99.90
33023;DHT22;19390;51.460;5.710;2024-01-30T14:24:27;11.10;99.90
33023;DHT22;19390;51.460;5.710;2024-01-30T14:26:53;11.00;99.90
33023;DHT22;19390;51.460;5.710;2024-01-30T14:29:18;11.00;99.90
33023;DHT22;19390;51.460;5.710;2024-01-30T14:31:44;10.90;99.90
33023;DHT22;19390;51.460;5.710;2024-01-30T14:34:09;10.80;99.90
33023;DHT22;19390;51.460;5.710;2024-01-30T14:36:37;10.80;99.90
33023;DHT22;19390;51.460;5.710;2024-01-30T14:39:03;10.90;99.90
33023;DHT22;19390;51.460;5.710;2024-01-30T14:41:29;11.00;99.90
33023;DHT22;19390;51.460;5.710;2024-01-30T14:43:55;11.00;99.90
33023;DHT22;19390;51.460;5.710;2024-01-30T14:46:21;11.00;99.90
33023;DHT22;19390;51.460;5.710;2024-01-30T14:48:47;11.00;99.90
33023;DHT22;19390;51.460;5.710;2024-01-30T14:51:13;11.00;99.90
33023;DHT22;19390;51.460;5.710;2024-01-30T14:53:39;10.90;99.90
33023;DHT22;19390;51.460;5.710;2024-01-30T14:56:05;10.90;99.90
33023;DHT22;19390;51.460;5.710;2024-01-30T14:58:31;10.90;99.90
33023;DHT22;19390;51.460;5.710;2024-01-30T15:00:57;10.80;99.90
33023;DHT22;19390;51.460;5.710;2024-01-30T15:03:22;10.50;99.90
33023;DHT22;19390;51.460;5.710;2024-01-30T15:05:48;10.50;99.90
33023;DHT22;19390;51.460;5.710;2024-01-30T15:08:14;10.50;99.90
33023;DHT22;19390;51.460;5.710;2024-01-30T15:10:39;10.40;99.90
33023;DHT22;19390;51.460;5.710;2024-01-30T15:13:05;10.40;99.90
33023;DHT22;19390;51.460;5.710;2024-01-30T15:15:30;10.40;99.90
33023;DHT22;19390;51.460;5.710;2024-01-30T15:17:57;10.30;99.90
33023;DHT22;19390;51.460;5.710;2024-01-30T15:20:23;10.30;99.90
33023;DHT22;19390;51.460;5.710;2024-01-30T15:22:49;10.20;99.90
33023;DHT22;19390;51.460;5.710;2024-01-30T15:25:14;10.00;99.90
33023;DHT22;19390;51.460;5.710;2024-01-30T15:27:40;9.90;99.90
33023;DHT22;19390;51.460;5.710;2024-01-30T15:30:07;10.00;99.90
33023;DHT22;19390;51.460;5.710;2024-01-30T15:32:32;9.90;99.90